Wetterdaten: Woche 02.08.10 - 08.08.10 (KW31)
Datum Zeit Temperatur Luftfeuchte Luftdruck Niederschlag Windrichtung Sonnenschein Solar Wind
02.08.2010 00:00 17,8 C 96 % 1014,7 hPa 0,4 l/m SW 0,00 h 0 W/m 14,4 km/h (3 Bft)
02.08.2010 01:00 17,8 C 96 % 1014,4 hPa 0,0 l/m SW 0,00 h 0 W/m 5,7 km/h (1 Bft)
02.08.2010 02:00 17,6 C 96 % 1014,1 hPa 0,0 l/m SW 0,00 h 0 W/m 7,6 km/h (2 Bft)
02.08.2010 03:00 17,1 C 96 % 1013,7 hPa 0,0 l/m SW 0,00 h 0 W/m 5,5 km/h (1 Bft)
02.08.2010 04:00 16,6 C 95 % 1013,6 hPa 0,0 l/m N 0,00 h 0 W/m 2,1 km/h (1 Bft)
02.08.2010 05:00 16,1 C 96 % 1013,7 hPa 0,2 l/m N 0,00 h 0 W/m 1,1 km/h (0 Bft)
02.08.2010 06:00 15,8 C 96 % 1013,9 hPa 0,0 l/m N 0,00 h 24 W/m 1,5 km/h (1 Bft)
02.08.2010 07:00 15,9 C 97 % 1013,6 hPa 0,0 l/m N 0,08 h 62 W/m 0,8 km/h (0 Bft)
02.08.2010 08:00 16,6 C 98 % 1013,6 hPa 0,0 l/m SO 0,00 h 92 W/m 1,5 km/h (1 Bft)
02.08.2010 09:00 17,2 C 97 % 1013,6 hPa 0,0 l/m S-SW 0,00 h 96 W/m 5,3 km/h (1 Bft)
02.08.2010 10:00 17,4 C 97 % 1013,7 hPa 0,0 l/m S-SW 0,00 h 138 W/m 8,2 km/h (2 Bft)
02.08.2010 11:00 18,7 C 93 % 1013,5 hPa 0,0 l/m SW 0,00 h 309 W/m 8,4 km/h (2 Bft)
02.08.2010 12:00 20,7 C 85 % 1013,1 hPa 0,0 l/m S-SW 0,42 h 546 W/m 11,7 km/h (2 Bft)
02.08.2010 13:00 21,8 C 80 % 1012,4 hPa 0,0 l/m SW 0,42 h 408 W/m 13,7 km/h (3 Bft)
02.08.2010 14:00 19,9 C 90 % 1012,5 hPa 2,4 l/m W 0,00 h 141 W/m 9,9 km/h (2 Bft)
02.08.2010 15:00 19,3 C 93 % 1012,6 hPa 0,6 l/m W 0,00 h 139 W/m 6,5 km/h (2 Bft)
02.08.2010 16:00 19,3 C 93 % 1012,5 hPa 0,2 l/m SW 0,00 h 173 W/m 7,9 km/h (2 Bft)
02.08.2010 17:00 18,8 C 93 % 1012,6 hPa 0,4 l/m SW 0,00 h 119 W/m 11,7 km/h (2 Bft)
02.08.2010 18:00 18,3 C 96 % 1012,8 hPa 0,2 l/m SW 0,00 h 79 W/m 10,2 km/h (2 Bft)
02.08.2010 19:00 17,7 C 96 % 1012,6 hPa 0,2 l/m W-SW 0,00 h 30 W/m 10,1 km/h (2 Bft)
02.08.2010 20:00 17,2 C 96 % 1012,8 hPa 0,4 l/m W-SW 0,00 h 5 W/m 8,1 km/h (2 Bft)
02.08.2010 21:00 16,5 C 96 % 1013,2 hPa 0,2 l/m W-SW 0,00 h 0 W/m 10,3 km/h (2 Bft)
02.08.2010 22:00 16,2 C 97 % 1013,3 hPa 0,4 l/m SW 0,00 h 0 W/m 8,4 km/h (2 Bft)
02.08.2010 23:00 15,7 C 98 % 1013,1 hPa 0,0 l/m SW 0,00 h 0 W/m 9,8 km/h (2 Bft)
03.08.2010 00:00 15,7 C 98 % 1013,2 hPa 0,0 l/m SW 0,00 h 0 W/m 7,6 km/h (2 Bft)
03.08.2010 01:00 15,5 C 98 % 1012,9 hPa 0,2 l/m SW 0,00 h 0 W/m 7,2 km/h (2 Bft)
03.08.2010 02:00 15,2 C 98 % 1012,7 hPa 0,0 l/m SW 0,00 h 0 W/m 9,3 km/h (2 Bft)
03.08.2010 03:00 15,2 C 98 % 1012,4 hPa 0,0 l/m SW 0,00 h 0 W/m 4,1 km/h (1 Bft)
03.08.2010 04:00 15,1 C 98 % 1012,2 hPa 0,0 l/m SW 0,00 h 0 W/m 5,3 km/h (1 Bft)
03.08.2010 05:00 15,0 C 97 % 1012,0 hPa 0,0 l/m W-SW 0,00 h 0 W/m 5,7 km/h (1 Bft)
03.08.2010 06:00 14,3 C 97 % 1012,0 hPa 0,0 l/m W 0,00 h 11 W/m 3,2 km/h (1 Bft)
03.08.2010 07:00 14,6 C 98 % 1012,7 hPa 0,0 l/m W 0,00 h 45 W/m 4,0 km/h (1 Bft)
03.08.2010 08:00 15,1 C 95 % 1013,4 hPa 0,0 l/m W-SW 0,00 h 121 W/m 8,3 km/h (2 Bft)
03.08.2010 09:00 15,9 C 90 % 1013,7 hPa 0,0 l/m W-SW 0,17 h 233 W/m 11,1 km/h (2 Bft)
03.08.2010 10:00 16,1 C 87 % 1013,9 hPa 0,0 l/m W-NW 0,17 h 261 W/m 12,8 km/h (3 Bft)
03.08.2010 11:00 17,6 C 80 % 1013,7 hPa 0,0 l/m W-NW 0,58 h 459 W/m 14,2 km/h (3 Bft)
03.08.2010 12:00 18,0 C 73 % 1013,5 hPa 0,0 l/m W 0,33 h 376 W/m 14,9 km/h (3 Bft)
03.08.2010 13:00 18,0 C 74 % 1013,3 hPa 0,0 l/m W 0,00 h 276 W/m 11,4 km/h (2 Bft)
03.08.2010 14:00 18,4 C 74 % 1013,3 hPa 0,0 l/m W-SW 0,08 h 325 W/m 11,7 km/h (2 Bft)
03.08.2010 15:00 17,8 C 81 % 1013,3 hPa 0,4 l/m W-SW 0,00 h 166 W/m 11,1 km/h (2 Bft)
03.08.2010 16:00 16,4 C 89 % 1013,3 hPa 0,6 l/m SW 0,25 h 264 W/m 9,0 km/h (2 Bft)
03.08.2010 17:00 16,9 C 86 % 1013,5 hPa 0,0 l/m W 0,00 h 100 W/m 12,4 km/h (3 Bft)
03.08.2010 18:00 16,4 C 88 % 1013,6 hPa 0,0 l/m W-SW 0,00 h 81 W/m 8,3 km/h (2 Bft)
03.08.2010 19:00 16,6 C 88 % 1013,9 hPa 0,0 l/m SW 0,00 h 49 W/m 7,6 km/h (2 Bft)
03.08.2010 20:00 15,8 C 93 % 1014,4 hPa 0,0 l/m S-SW 0,00 h 15 W/m 8,9 km/h (2 Bft)
03.08.2010 21:00 15,1 C 94 % 1014,7 hPa 0,0 l/m SW 0,00 h 0 W/m 5,8 km/h (1 Bft)
03.08.2010 22:00 14,7 C 95 % 1014,9 hPa 0,0 l/m N 0,00 h 0 W/m 0,5 km/h (0 Bft)
03.08.2010 23:00 13,9 C 97 % 1015,0 hPa 0,0 l/m N 0,00 h 0 W/m 0,4 km/h (0 Bft)
04.08.2010 00:00 12,7 C 97 % 1014,7 hPa 0,0 l/m N 0,00 h 0 W/m 0,0 km/h (0 Bft)
04.08.2010 01:00 11,9 C 98 % 1014,3 hPa 0,0 l/m N 0,00 h 0 W/m 0,0 km/h (0 Bft)
04.08.2010 02:00 11,3 C 98 % 1014,0 hPa 0,0 l/m N 0,00 h 0 W/m 0,0 km/h (0 Bft)
04.08.2010 03:00 10,8 C 98 % 1013,6 hPa 0,0 l/m N 0,00 h 0 W/m 0,0 km/h (0 Bft)
04.08.2010 04:00 10,3 C 99 % 1013,4 hPa 0,0 l/m N 0,00 h 0 W/m 0,0 km/h (0 Bft)
04.08.2010 05:00 9,7 C 99 % 1013,1 hPa 0,2 l/m N 0,00 h 0 W/m 0,0 km/h (0 Bft)
04.08.2010 06:00 9,6 C 99 % 1013,0 hPa 0,0 l/m N 0,00 h 17 W/m 0,0 km/h (0 Bft)
04.08.2010 07:00 10,7 C 99 % 1013,1 hPa 0,0 l/m N 0,00 h 66 W/m 0,1 km/h (0 Bft)
04.08.2010 08:00 12,1 C 100 % 1013,0 hPa 0,0 l/m S-SW 0,00 h 144 W/m 2,1 km/h (1 Bft)
04.08.2010 09:00 13,5 C 97 % 1012,8 hPa 0,0 l/m SW 0,08 h 262 W/m 4,9 km/h (1 Bft)
04.08.2010 10:00 16,3 C 87 % 1012,4 hPa 0,0 l/m W-NW 0,75 h 535 W/m 4,9 km/h (1 Bft)
04.08.2010 11:00 18,1 C 74 % 1011,9 hPa 0,0 l/m SW 0,58 h 553 W/m 5,9 km/h (2 Bft)
04.08.2010 12:00 19,4 C 63 % 1011,3 hPa 0,0 l/m W-SW 0,67 h 622 W/m 9,0 km/h (2 Bft)
04.08.2010 13:00 20,4 C 62 % 1010,5 hPa 0,0 l/m SW 0,83 h 668 W/m 11,1 km/h (2 Bft)
04.08.2010 14:00 20,6 C 58 % 1009,7 hPa 0,0 l/m SW 0,50 h 564 W/m 12,8 km/h (3 Bft)
04.08.2010 15:00 20,7 C 58 % 1009,4 hPa 0,0 l/m W-SW 0,75 h 497 W/m 11,1 km/h (2 Bft)
04.08.2010 16:00 21,2 C 51 % 1009,1 hPa 0,0 l/m W-SW 0,83 h 525 W/m 12,6 km/h (3 Bft)
04.08.2010 17:00 21,0 C 57 % 1008,6 hPa 0,0 l/m NO 0,83 h 423 W/m 12,1 km/h (2 Bft)
04.08.2010 18:00 20,9 C 57 % 1008,2 hPa 0,0 l/m N-NO 0,92 h 317 W/m 8,9 km/h (2 Bft)
04.08.2010 19:00 19,2 C 69 % 1007,9 hPa 0,0 l/m W-NW 0,08 h 56 W/m 3,1 km/h (1 Bft)
04.08.2010 20:00 17,2 C 80 % 1007,8 hPa 0,0 l/m N 0,25 h 27 W/m 0,3 km/h (0 Bft)
04.08.2010 21:00 15,4 C 85 % 1007,9 hPa 0,0 l/m N 0,00 h 0 W/m 0,4 km/h (0 Bft)
04.08.2010 22:00 14,4 C 90 % 1007,9 hPa 0,0 l/m N 0,00 h 0 W/m 0,0 km/h (0 Bft)
04.08.2010 23:00 13,9 C 93 % 1007,4 hPa 0,0 l/m N 0,00 h 0 W/m 0,0 km/h (0 Bft)
05.08.2010 00:00 13,6 C 94 % 1006,9 hPa 0,0 l/m N 0,00 h 0 W/m 0,0 km/h (0 Bft)
05.08.2010 01:00 13,7 C 94 % 1006,4 hPa 0,0 l/m N 0,00 h 0 W/m 0,0 km/h (0 Bft)
05.08.2010 02:00 13,4 C 95 % 1006,1 hPa 0,0 l/m N 0,00 h 0 W/m 0,0 km/h (0 Bft)
05.08.2010 03:00 13,4 C 96 % 1005,6 hPa 0,0 l/m N 0,00 h 0 W/m 0,0 km/h (0 Bft)
05.08.2010 04:00 13,3 C 96 % 1005,3 hPa 0,0 l/m N 0,00 h 0 W/m 0,0 km/h (0 Bft)
05.08.2010 05:00 13,4 C 95 % 1004,9 hPa 0,0 l/m N 0,00 h 0 W/m 0,0 km/h (0 Bft)
05.08.2010 06:00 13,6 C 95 % 1004,7 hPa 0,4 l/m N 0,00 h 14 W/m 0,0 km/h (0 Bft)
05.08.2010 07:00 13,9 C 95 % 1004,8 hPa 0,0 l/m N 0,00 h 42 W/m 0,0 km/h (0 Bft)
05.08.2010 08:00 14,3 C 96 % 1004,9 hPa 0,0 l/m N 0,00 h 84 W/m 0,0 km/h (0 Bft)
05.08.2010 09:00 14,7 C 96 % 1005,0 hPa 0,0 l/m W-NW 0,00 h 68 W/m 4,8 km/h (1 Bft)
05.08.2010 10:00 14,1 C 95 % 1005,6 hPa 5,0 l/m W 0,00 h 34 W/m 10,2 km/h (2 Bft)
05.08.2010 11:00 13,6 C 96 % 1006,3 hPa 4,8 l/m W 0,00 h 59 W/m 6,7 km/h (2 Bft)
05.08.2010 12:00 13,8 C 96 % 1006,5 hPa 3,0 l/m W 0,00 h 102 W/m 7,4 km/h (2 Bft)
05.08.2010 13:00 13,7 C 95 % 1006,6 hPa 2,4 l/m W-SW 0,00 h 141 W/m 6,0 km/h (2 Bft)
05.08.2010 14:00 14,2 C 97 % 1006,7 hPa 1,8 l/m W-SW 0,00 h 173 W/m 5,5 km/h (1 Bft)
05.08.2010 15:00 14,6 C 96 % 1006,9 hPa 1,2 l/m SW 0,00 h 141 W/m 4,8 km/h (1 Bft)
05.08.2010 16:00 14,5 C 96 % 1007,4 hPa 6,0 l/m SW 0,00 h 81 W/m 7,1 km/h (2 Bft)
05.08.2010 17:00 13,3 C 97 % 1007,9 hPa 3,6 l/m NW 0,00 h 61 W/m 2,9 km/h (1 Bft)
05.08.2010 18:00 13,7 C 97 % 1007,9 hPa 1,0 l/m W-NW 0,00 h 51 W/m 8,4 km/h (2 Bft)
05.08.2010 19:00 13,5 C 97 % 1008,3 hPa 1,2 l/m W-NW 0,00 h 24 W/m 8,6 km/h (2 Bft)
05.08.2010 20:00 13,1 C 97 % 1008,9 hPa 3,0 l/m W-NW 0,00 h 7 W/m 15,6 km/h (3 Bft)
05.08.2010 21:00 12,7 C 97 % 1009,8 hPa 1,6 l/m NW 0,00 h 0 W/m 8,6 km/h (2 Bft)
05.08.2010 22:00 12,5 C 97 % 1010,3 hPa 1,2 l/m W-NW 0,00 h 0 W/m 10,8 km/h (2 Bft)
05.08.2010 23:00 12,3 C 97 % 1010,8 hPa 0,8 l/m W-NW 0,00 h 0 W/m 12,9 km/h (3 Bft)
06.08.2010 00:00 12,1 C 97 % 1011,1 hPa 0,6 l/m W-NW 0,00 h 0 W/m 12,6 km/h (3 Bft)
06.08.2010 01:00 12,2 C 97 % 1011,2 hPa 0,8 l/m W-NW 0,00 h 0 W/m 12,6 km/h (3 Bft)
06.08.2010 02:00 12,2 C 97 % 1011,3 hPa 0,0 l/m W-NW 0,00 h 0 W/m 9,1 km/h (2 Bft)
06.08.2010 03:00 12,0 C 97 % 1011,6 hPa 0,2 l/m W-NW 0,00 h 0 W/m 9,9 km/h (2 Bft)
06.08.2010 04:00 11,7 C 96 % 1011,9 hPa 0,8 l/m W 0,00 h 0 W/m 10,1 km/h (2 Bft)
06.08.2010 05:00 11,6 C 97 % 1012,3 hPa 0,4 l/m W 0,00 h 0 W/m 11,0 km/h (2 Bft)
06.08.2010 06:00 11,6 C 97 % 1013,0 hPa 0,0 l/m W-NW 0,00 h 13 W/m 10,7 km/h (2 Bft)
06.08.2010 07:00 11,7 C 97 % 1013,6 hPa 0,2 l/m W 0,00 h 49 W/m 9,4 km/h (2 Bft)
06.08.2010 08:00 12,1 C 96 % 1014,2 hPa 0,0 l/m W 0,00 h 93 W/m 8,8 km/h (2 Bft)
06.08.2010 09:00 12,9 C 95 % 1014,7 hPa 0,0 l/m W 0,00 h 198 W/m 9,4 km/h (2 Bft)
06.08.2010 10:00 13,4 C 92 % 1015,0 hPa 0,0 l/m W 0,00 h 182 W/m 10,5 km/h (2 Bft)
06.08.2010 11:00 14,0 C 89 % 1015,5 hPa 0,0 l/m W-NW 0,08 h 323 W/m 9,4 km/h (2 Bft)
06.08.2010 12:00 15,2 C 82 % 1015,8 hPa 0,0 l/m W-NW 0,33 h 417 W/m 14,6 km/h (3 Bft)
06.08.2010 13:00 15,5 C 79 % 1015,8 hPa 0,2 l/m W-NW 0,08 h 305 W/m 12,9 km/h (3 Bft)
06.08.2010 14:00 15,7 C 77 % 1016,0 hPa 0,0 l/m W 0,00 h 274 W/m 9,5 km/h (2 Bft)
06.08.2010 15:00 15,1 C 82 % 1016,3 hPa 0,0 l/m N 0,00 h 80 W/m 6,8 km/h (2 Bft)
06.08.2010 16:00 15,0 C 83 % 1016,5 hPa 0,0 l/m SW 0,00 h 166 W/m 5,2 km/h (1 Bft)
06.08.2010 17:00 14,8 C 88 % 1016,9 hPa 0,0 l/m S-SW 0,00 h 142 W/m 10,9 km/h (2 Bft)
06.08.2010 18:00 14,3 C 92 % 1017,0 hPa 0,0 l/m SW 0,00 h 114 W/m 11,6 km/h (2 Bft)
06.08.2010 19:00 13,8 C 94 % 1017,3 hPa 1,2 l/m S-SW 0,00 h 32 W/m 8,0 km/h (2 Bft)
06.08.2010 20:00 13,3 C 96 % 1017,9 hPa 0,0 l/m S-SW 0,00 h 5 W/m 3,6 km/h (1 Bft)
06.08.2010 21:00 12,9 C 96 % 1018,4 hPa 1,4 l/m N 0,00 h 0 W/m 2,9 km/h (1 Bft)
06.08.2010 22:00 12,5 C 97 % 1018,5 hPa 0,0 l/m SW 0,00 h 0 W/m 5,2 km/h (1 Bft)
06.08.2010 23:00 12,4 C 97 % 1018,6 hPa 0,0 l/m S-SW 0,00 h 0 W/m 6,0 km/h (2 Bft)
07.08.2010 00:00 12,4 C 97 % 1018,5 hPa 0,0 l/m S-SW 0,00 h 0 W/m 3,5 km/h (1 Bft)
07.08.2010 01:00 12,4 C 96 % 1018,2 hPa 0,0 l/m S-SO 0,00 h 0 W/m 4,8 km/h (1 Bft)
07.08.2010 02:00 12,2 C 95 % 1018,0 hPa 0,0 l/m S 0,00 h 0 W/m 5,2 km/h (1 Bft)
07.08.2010 03:00 12,2 C 92 % 1018,0 hPa 0,0 l/m S 0,00 h 0 W/m 4,5 km/h (1 Bft)
07.08.2010 04:00 11,9 C 93 % 1018,1 hPa 0,0 l/m W-NW 0,00 h 0 W/m 3,2 km/h (1 Bft)
07.08.2010 05:00 11,7 C 94 % 1018,3 hPa 0,0 l/m N 0,00 h 0 W/m 0,5 km/h (0 Bft)
07.08.2010 06:00 11,6 C 94 % 1018,4 hPa 0,0 l/m N 0,00 h 15 W/m 0,3 km/h (0 Bft)
07.08.2010 07:00 11,3 C 95 % 1018,5 hPa 0,0 l/m N 0,08 h 56 W/m 0,1 km/h (0 Bft)
07.08.2010 08:00 12,9 C 95 % 1018,6 hPa 0,0 l/m S-SW 0,92 h 322 W/m 3,1 km/h (1 Bft)
07.08.2010 09:00 15,4 C 85 % 1018,7 hPa 0,0 l/m S-SW 1,00 h 443 W/m 7,1 km/h (2 Bft)
07.08.2010 10:00 17,6 C 75 % 1018,5 hPa 0,0 l/m SO 1,00 h 656 W/m 6,7 km/h (2 Bft)
07.08.2010 11:00 18,3 C 68 % 1018,3 hPa 0,0 l/m W-NW 0,42 h 395 W/m 5,5 km/h (1 Bft)
07.08.2010 12:00 19,2 C 58 % 1018,0 hPa 0,0 l/m O-SO 0,83 h 859 W/m 8,3 km/h (2 Bft)
07.08.2010 13:00 20,2 C 55 % 1017,7 hPa 0,0 l/m S 0,58 h 662 W/m 8,8 km/h (2 Bft)
07.08.2010 14:00 20,5 C 54 % 1017,5 hPa 0,0 l/m SW 0,67 h 631 W/m 8,4 km/h (2 Bft)
07.08.2010 15:00 20,9 C 52 % 1017,2 hPa 0,0 l/m SO 0,33 h 390 W/m 7,6 km/h (2 Bft)
07.08.2010 16:00 21,7 C 51 % 1016,9 hPa 0,0 l/m S-SW 1,00 h 638 W/m 8,6 km/h (2 Bft)
07.08.2010 17:00 21,6 C 53 % 1016,5 hPa 0,0 l/m SW 0,58 h 323 W/m 11,7 km/h (2 Bft)
07.08.2010 18:00 21,0 C 58 % 1016,4 hPa 0,0 l/m SW 0,58 h 242 W/m 9,7 km/h (2 Bft)
07.08.2010 19:00 19,7 C 67 % 1016,3 hPa 0,0 l/m SW 0,17 h 78 W/m 5,8 km/h (1 Bft)
07.08.2010 20:00 17,4 C 75 % 1016,7 hPa 0,0 l/m N 0,00 h 13 W/m 4,0 km/h (1 Bft)
07.08.2010 21:00 15,2 C 83 % 1017,1 hPa 0,0 l/m N 0,00 h 0 W/m 0,4 km/h (0 Bft)
07.08.2010 22:00 14,4 C 87 % 1017,2 hPa 0,0 l/m N 0,00 h 0 W/m 0,1 km/h (0 Bft)
07.08.2010 23:00 13,6 C 89 % 1017,0 hPa 0,0 l/m N 0,00 h 0 W/m 0,0 km/h (0 Bft)
08.08.2010 00:00 12,5 C 92 % 1016,9 hPa 0,0 l/m N 0,00 h 0 W/m 0,0 km/h (0 Bft)
08.08.2010 01:00 11,8 C 94 % 1016,7 hPa 0,0 l/m N 0,00 h 0 W/m 0,0 km/h (0 Bft)
08.08.2010 02:00 11,5 C 95 % 1016,6 hPa 0,0 l/m N 0,00 h 0 W/m 0,0 km/h (0 Bft)
08.08.2010 03:00 11,4 C 95 % 1016,2 hPa 0,0 l/m N 0,00 h 0 W/m 0,0 km/h (0 Bft)
08.08.2010 04:00 11,3 C 95 % 1016,0 hPa 0,0 l/m N 0,00 h 0 W/m 0,0 km/h (0 Bft)
08.08.2010 05:00 11,4 C 94 % 1015,8 hPa 0,0 l/m N 0,00 h 0 W/m 0,0 km/h (0 Bft)
08.08.2010 06:00 11,7 C 95 % 1015,8 hPa 0,0 l/m N 0,00 h 14 W/m 0,0 km/h (0 Bft)
08.08.2010 07:00 12,3 C 95 % 1015,8 hPa 0,4 l/m S-SW 0,00 h 30 W/m 0,0 km/h (0 Bft)
08.08.2010 08:00 13,5 C 96 % 1015,7 hPa 0,0 l/m SW 0,08 h 169 W/m 2,8 km/h (1 Bft)
08.08.2010 09:00 15,3 C 92 % 1015,8 hPa 0,0 l/m S-SW 0,00 h 202 W/m 4,8 km/h (1 Bft)
08.08.2010 10:00 17,1 C 86 % 1015,9 hPa 0,0 l/m S-SW 0,17 h 269 W/m 13,8 km/h (3 Bft)
08.08.2010 11:00 18,6 C 79 % 1016,1 hPa 0,0 l/m W-SW 0,17 h 318 W/m 14,4 km/h (3 Bft)
08.08.2010 12:00 18,2 C 80 % 1016,1 hPa 5,0 l/m W 0,08 h 200 W/m 11,8 km/h (2 Bft)
08.08.2010 13:00 17,3 C 91 % 1016,0 hPa 0,0 l/m W-SW 0,08 h 230 W/m 9,7 km/h (2 Bft)
08.08.2010 14:00 17,2 C 91 % 1015,8 hPa 0,6 l/m S-SW 0,42 h 436 W/m 17,6 km/h (3 Bft)
08.08.2010 15:00 18,8 C 84 % 1015,3 hPa 0,0 l/m SW 0,42 h 451 W/m 20,0 km/h (4 Bft)
08.08.2010 16:00 17,4 C 85 % 1015,6 hPa 6,0 l/m SW 0,00 h 52 W/m 15,4 km/h (3 Bft)
08.08.2010 17:00 15,5 C 95 % 1016,3 hPa 2,2 l/m NW 0,08 h 160 W/m 4,3 km/h (1 Bft)
08.08.2010 18:00 16,7 C 93 % 1015,9 hPa 0,0 l/m O-SO 0,42 h 188 W/m 4,1 km/h (1 Bft)
08.08.2010 19:00 16,7 C 92 % 1016,0 hPa 0,0 l/m N 0,25 h 88 W/m 3,6 km/h (1 Bft)
08.08.2010 20:00 15,5 C 96 % 1016,8 hPa 0,0 l/m W 0,00 h 16 W/m 2,9 km/h (1 Bft)
08.08.2010 21:00 15,0 C 97 % 1017,4 hPa 0,0 l/m N 0,00 h 0 W/m 0,7 km/h (0 Bft)
08.08.2010 22:00 14,7 C 97 % 1017,7 hPa 0,0 l/m N 0,00 h 0 W/m 0,1 km/h (0 Bft)
08.08.2010 23:00 14,6 C 98 % 1017,8 hPa 0,0 l/m N 0,00 h 0 W/m 0,0 km/h (0 Bft)
Min-Datum _ 04.08.10 04.08.10 05.08.10 - - - - 02.08.10
_ Min-Zeit 06:05 16:10 06:35 - - - - 03:35
Minimum _ 9,2 C 48 % 1004,6 hPa - - - - 0,0 km/h (0 Bft)
Max-Datum _ 02.08.10 04.08.10 07.08.10 05.08.10 - 02.08.10 02.08.10 02.08.10
_ Max-Zeit 13:35 07:40 09:25 16:45 - 07:05 12:30 13:40
Maximum _ 22,7 C 100 % 1018,8 hPa 6,0 l/m - 0,08 h 1143 W/m 27,4 km/h
SW (4 Bft)
Durchschnitt _ 15,3 C 89 % 1013,4 hPa #64,0 l/m SW #20:25 h 214 W/m 6,3 km/h (2 Bft)